Mountain Home, AR (72653)

4:56 PM CDT on April 30, 2017 (GMT -0500)
Mountain Home | | Change Station

Elev 922 ft 36.35 °N, 92.40 °W | Updated 1 second ago

Clear
Clear
64.8 °F
Feels Like 64.8 °F
N
5.8
Wind Variable Wind from South
Gusts 5.8 mph

Today
High -- | Low -- °F
--% Chance of Precip.
Yesterday
High -- | Low -- °F
Precip. -- in
Pressure 29.55 in
Visibility 10.0 miles
Clouds Few 5000 ft
Dew Point 50 °F
Humidity 59%
Rainfall 0.89 in
Snow Depth Not available.
6:17 AM 7:56 PM
Waxing Crescent, 26% visible
METAR KBPK 302153Z AUTO 23011G21KT 10SM FEW050 19/08 A2957 RMK AO2 PK WND 23026/2058 SLP007 T01890083 $
Pressure 29.55 in
Visibility 10.0 miles
Clouds Few 5000 ft
Dew Point 50 °F
Humidity 59%
Rainfall 0.89 in
Snow Depth Not available.
6:17 AM 7:56 PM
Waxing Crescent, 26% visible
METAR KBPK 302153Z AUTO 23011G21KT 10SM FEW050 19/08 A2957 RMK AO2 PK WND 23026/2058 SLP007 T01890083 $

Get Severe Weather Alerts

Thanks for signing up!

Be on the lookout for a verification email in your inbox.

You'll start receiving the daily forecast at 8 AM.

×

10-Day Weather Forecast

Almanac

Astronomy

Apr. 30, 2017 Rise Set
Actual Time
Civil Twilight
Nautical Twilight
Astronomical Twilight
Moon
Length of Visible Light
Length of Day
Tomorrow will be .
, % of the Moon is Illuminated

Today's Extremes

State Highs State Lows

Community

WunderPhotos

WunderBlog® & News

Nearby

Air Quality

  Air Quality AQ Index Pollutant
Not available.

Snow Depth

Station Depth Elevation

Earthquake Activity

City Distance Mag. Time & Date
Minimum magnitude displayed is 2.5.

Coastal Water Temperatures

Place Temperature

Stations

Nearby Weather Stations

Station Location Temp. Windchill Dew Point Humidity Wind Precip. Elev Updated Type
                   

Watches & Warnings

There are currently no watches in effect.